| time (UTC) | temp F | wind direction | speed knots | gust knots | rain 1hr in | rain 24hr in | rain mn in | humidity % | barometer mb |
| 20260510231032 | 70 | 318 | 0.0 | 0.0 | 0.00 | 0.02 | 0.02 | 67 | 1013.5 |
| 20260510230531 | 70 | 327 | 2.6 | 2.6 | 0.00 | 0.02 | 0.02 | 66 | 1013.4 |
| 20260510230028 | 70 | 325 | 0.0 | 0.9 | 0.00 | 0.02 | 0.02 | 66 | 1013.4 |
| 20260510225525 | 71 | 334 | 0.9 | 1.7 | 0.00 | 0.02 | 0.02 | 66 | 1013.4 |
| 20260510225021 | 71 | 321 | 0.9 | 1.7 | 0.00 | 0.02 | 0.02 | 65 | 1013.6 |
| 20260510224517 | 71 | 321 | 2.6 | 4.3 | 0.00 | 0.02 | 0.02 | 65 | 1013.6 |
| 20260510224014 | 71 | 332 | 0.9 | 0.9 | 0.00 | 0.02 | 0.02 | 65 | 1013.4 |
| 20260510223512 | 72 | 327 | 0.9 | 0.9 | 0.00 | 0.02 | 0.02 | 64 | 1013.6 |
| 20260510223009 | 72 | 313 | 0.9 | 0.9 | 0.00 | 0.02 | 0.02 | 64 | 1013.3 |
| 20260510222506 | 72 | 347 | 2.6 | 2.6 | 0.00 | 0.02 | 0.02 | 63 | 1013.4 |
| 20260510222002 | 72 | 338 | 2.6 | 4.3 | 0.00 | 0.02 | 0.02 | 63 | 1013.3 |
| 20260510221458 | 73 | 135 | 3.5 | 5.2 | 0.00 | 0.02 | 0.02 | 63 | 1013.7 |
| 20260510220954 | 72 | 273 | 1.7 | 1.7 | 0.00 | 0.02 | 0.02 | 63 | 1013.4 |
| 20260510220450 | 71 | 5 | 2.6 | 2.6 | 0.00 | 0.02 | 0.02 | 66 | 1013.3 |
| 20260510215947 | 72 | 177 | 4.3 | 5.2 | 0.00 | 0.02 | 0.02 | 65 | 1013.2 |
| 20260510215444 | 72 | 323 | 0.9 | 1.7 | 0.00 | 0.02 | 0.02 | 66 | 1013.4 |
| 20260510214942 | 72 | 49 | 0.9 | 1.7 | 0.00 | 0.02 | 0.02 | 65 | 1013.4 |
| 20260510214438 | 73 | 276 | 1.7 | 1.7 | 0.00 | 0.02 | 0.02 | 66 | 1013.1 |
| 20260510213936 | 74 | 350 | 1.7 | 1.7 | 0.00 | 0.02 | 0.02 | 66 | 1013.0 |
| 20260510213432 | 73 | 314 | 1.7 | 1.7 | 0.00 | 0.02 | 0.02 | 65 | 1013.1 |
| 20260510212928 | 72 | 337 | 0.9 | 0.9 | 0.00 | 0.02 | 0.02 | 66 | 1013.1 |
| 20260510212426 | 73 | 167 | 1.7 | 1.7 | 0.00 | 0.02 | 0.02 | 66 | 1012.9 |
| 20260510211922 | 73 | 358 | 0.9 | 1.7 | 0.00 | 0.02 | 0.02 | 65 | 1012.9 |
| 20260510211420 | 74 | 247 | 2.6 | 2.6 | 0.00 | 0.02 | 0.02 | 66 | 1012.8 |
| 20260510210920 | 74 | 275 | 1.7 | 1.7 | 0.00 | 0.02 | 0.02 | 65 | 1012.6 |
| 20260510210415 | 75 | 19 | 0.9 | 1.7 | 0.00 | 0.02 | 0.02 | 65 | 1012.8 |
| 20260510205914 | 76 | 335 | 3.5 | 4.3 | 0.00 | 0.02 | 0.02 | 64 | 1012.9 |
| 20260510205409 | 76 | 326 | 0.0 | 0.0 | 0.00 | 0.02 | 0.02 | 61 | 1012.6 |
| 20260510204906 | 74 | 321 | 1.7 | 1.7 | 0.00 | 0.02 | 0.02 | 64 | 1012.6 |
| 20260510204402 | 75 | 347 | 1.7 | 1.7 | 0.00 | 0.02 | 0.02 | 64 | 1012.9 |
| 20260510203859 | 75 | 16 | 0.9 | 1.7 | 0.00 | 0.02 | 0.02 | 65 | 1012.9 |
| 20260510203356 | 74 | 29 | 1.7 | 1.7 | 0.00 | 0.02 | 0.02 | 63 | 1012.6 |
| 20260510202851 | 74 | 335 | 1.7 | 2.6 | 0.00 | 0.02 | 0.02 | 64 | 1012.6 |
| 20260510202347 | 74 | 335 | 0.0 | 0.9 | 0.00 | 0.02 | 0.02 | 64 | 1012.7 |
| 20260510201843 | 74 | 235 | 2.6 | 2.6 | 0.00 | 0.02 | 0.02 | 65 | 1012.8 |
| 20260510201341 | 74 | 127 | 2.6 | 2.6 | 0.00 | 0.02 | 0.02 | 65 | 1012.6 |
| 20260510200837 | 74 | 277 | 2.6 | 2.6 | 0.00 | 0.02 | 0.02 | 64 | 1012.9 |
| 20260510200336 | 74 | 330 | 0.9 | 0.9 | 0.00 | 0.02 | 0.02 | 64 | 1012.9 |
| 20260510195831 | 75 | 323 | 0.9 | 0.9 | 0.00 | 0.02 | 0.02 | 64 | 1012.9 |
| 20260510195328 | 77 | 250 | 3.5 | 4.3 | 0.00 | 0.02 | 0.02 | 62 | 1012.8 |
| 20260510194823 | 76 | 301 | 0.9 | 0.9 | 0.00 | 0.02 | 0.02 | 68 | 1012.8 |
| 20260510194320 | 75 | 308 | 0.9 | 0.9 | 0.00 | 0.02 | 0.02 | 68 | 1013.1 |
| 20260510193815 | 75 | 309 | 0.0 | 0.9 | 0.00 | 0.02 | 0.02 | 68 | 1012.7 |
| 20260510193310 | 73 | 337 | 0.0 | 0.0 | 0.00 | 0.02 | 0.02 | 76 | 1013.0 |
| 20260510192806 | 71 | 316 | 0.0 | 0.0 | 0.00 | 0.02 | 0.02 | 80 | 1012.9 |
| 20260510192306 | 71 | 333 | 0.0 | 0.0 | 0.00 | 0.02 | 0.02 | 85 | 1013.2 |
| 20260510191758 | 70 | 310 | 0.0 | 0.9 | 0.00 | 0.02 | 0.02 | 80 | 1013.1 |
| 20260510191254 | 71 | 284 | 1.7 | 1.7 | 0.00 | 0.02 | 0.02 | 80 | 1013.3 |
| 20260510190752 | 70 | 324 | 0.0 | 0.0 | 0.00 | 0.02 | 0.02 | 82 | 1013.3 |
| 20260510190248 | 69 | 309 | 0.9 | 0.9 | 0.12 | 0.02 | 0.02 | 85 | 1013.3 |
| 20260510185745 | 70 | 318 | 0.0 | 0.0 | 0.12 | 0.02 | 0.02 | 79 | 1013.4 |
| 20260510185243 | 72 | 1 | 0.9 | 1.7 | 0.00 | 0.00 | 0.00 | 68 | 1013.3 |
| 20260510184740 | 72 | 279 | 2.6 | 2.6 | 0.00 | 0.00 | 0.00 | 64 | 1013.3 |
| 20260510184237 | 73 | 52 | 2.6 | 2.6 | 0.00 | 0.00 | 0.00 | 64 | 1013.1 |
| 20260510183731 | 73 | 338 | 0.0 | 0.0 | 0.00 | 0.00 | 0.00 | 62 | 1013.3 |
| 20260510183227 | 74 | 293 | 0.9 | 0.9 | 0.00 | 0.00 | 0.00 | 62 | 1013.1 |
| 20260510182723 | 74 | 74 | 1.7 | 2.6 | 0.00 | 0.00 | 0.00 | 63 | 1013.2 |
| 20260510182219 | 74 | 72 | 2.6 | 2.6 | 0.00 | 0.00 | 0.00 | 62 | 1013.4 |
| 20260510181716 | 75 | 205 | 6.1 | 6.1 | 0.00 | 0.00 | 0.00 | 61 | 1013.3 |
| 20260510181213 | 76 | 304 | 1.7 | 1.7 | 0.00 | 0.00 | 0.00 | 58 | 1013.0 |
| 20260510180709 | 76 | 191 | 2.6 | 4.3 | 0.00 | 0.00 | 0.00 | 61 | 1012.9 |
| 20260510180207 | 75 | 335 | 2.6 | 4.3 | 0.00 | 0.00 | 0.00 | 59 | 1012.9 |
| 20260510175702 | 73 | 250 | 2.6 | 4.3 | 0.00 | 0.00 | 0.00 | 61 | 1013.2 |
| 20260510175158 | 73 | 131 | 4.3 | 6.1 | 0.00 | 0.00 | 0.00 | 62 | 1013.2 |
| 20260510174656 | 75 | 96 | 4.3 | 6.1 | 0.00 | 0.00 | 0.00 | 61 | 1013.0 |
| 20260510174153 | 75 | 62 | 4.3 | 5.2 | 0.00 | 0.00 | 0.00 | 62 | 1013.0 |
| 20260510173649 | 75 | 241 | 2.6 | 2.6 | 0.00 | 0.00 | 0.00 | 63 | 1013.0 |
| 20260510173145 | 76 | 343 | 0.9 | 0.9 | 0.00 | 0.00 | 0.00 | 66 | 1013.1 |
| 20260510172641 | 75 | 304 | 2.6 | 2.6 | 0.00 | 0.00 | 0.00 | 64 | 1013.0 |
| 20260510172137 | 75 | 287 | 0.9 | 1.7 | 0.00 | 0.00 | 0.00 | 62 | 1013.0 |
| 20260510171634 | 74 | 328 | 0.9 | 0.9 | 0.00 | 0.00 | 0.00 | 66 | 1013.4 |
| 20260510171132 | 73 | 16 | 1.7 | 1.7 | 0.00 | 0.00 | 0.00 | 64 | 1013.1 |
| 20260510170628 | 73 | 296 | 1.7 | 2.6 | 0.00 | 0.00 | 0.00 | 64 | 1013.1 |
| 20260510170124 | 72 | 156 | 2.6 | 2.6 | 0.00 | 0.00 | 0.00 | 70 | 1013.1 |
| 20260510165620 | 71 | 118 | 1.7 | 2.6 | 0.00 | 0.00 | 0.00 | 69 | 1013.1 |
| 20260510165116 | 71 | 319 | 1.7 | 1.7 | 0.00 | 0.00 | 0.00 | 69 | 1013.3 |
| 20260510164614 | 70 | 45 | 2.6 | 2.6 | 0.00 | 0.00 | 0.00 | 69 | 1013.1 |
| 20260510164110 | 70 | 318 | 0.9 | 0.9 | 0.00 | 0.00 | 0.00 | 69 | 1013.2 |
| 20260510163605 | 69 | 312 | 0.9 | 0.9 | 0.00 | 0.00 | 0.00 | 69 | 1013.2 |
| 20260510163102 | 69 | 104 | 2.6 | 2.6 | 0.00 | 0.00 | 0.00 | 69 | 1013.3 |
| 20260510162556 | 71 | 125 | 2.6 | 4.3 | 0.00 | 0.00 | 0.00 | 68 | 1013.1 |
| 20260510162053 | 71 | 79 | 1.7 | 1.7 | 0.00 | 0.00 | 0.00 | 66 | 1013.0 |
| 20260510161549 | 73 | 358 | 0.9 | 1.7 | 0.00 | 0.00 | 0.00 | 65 | 1013.6 |
| 20260510161046 | 73 | 319 | 0.0 | 0.0 | 0.00 | 0.00 | 0.00 | 62 | 1013.2 |
| 20260510160543 | 74 | 237 | 2.6 | 2.6 | 0.00 | 0.00 | 0.00 | 65 | 1013.5 |
| 20260510160042 | 73 | 192 | 1.7 | 1.7 | 0.00 | 0.00 | 0.00 | 66 | 1013.1 |
| 20260510155539 | 72 | 346 | 0.0 | 0.0 | 0.00 | 0.00 | 0.00 | 66 | 1013.2 |
| 20260510155036 | 71 | 328 | 0.0 | 0.0 | 0.00 | 0.00 | 0.00 | 65 | 1013.1 |
| 20260510154531 | 71 | 344 | 1.7 | 1.7 | 0.00 | 0.00 | 0.00 | 69 | 1013.1 |
| 20260510154027 | 69 | 41 | 1.7 | 1.7 | 0.00 | 0.00 | 0.00 | 68 | 1013.2 |
| 20260510153521 | 69 | 127 | 1.7 | 1.7 | 0.00 | 0.00 | 0.00 | 67 | 1013.1 |
| 20260510153019 | 70 | 65 | 1.7 | 2.6 | 0.00 | 0.00 | 0.00 | 68 | 1013.1 |
| 20260510152516 | 71 | 225 | 2.6 | 2.6 | 0.00 | 0.00 | 0.00 | 67 | 1013.2 |
| 20260510152012 | 70 | 292 | 2.6 | 2.6 | 0.00 | 0.00 | 0.00 | 66 | 1013.0 |
| 20260510151509 | 71 | 330 | 0.9 | 1.7 | 0.00 | 0.00 | 0.00 | 66 | 1013.3 |
| 20260510151006 | 71 | 354 | 1.7 | 2.6 | 0.00 | 0.00 | 0.00 | 69 | 1013.0 |
| 20260510150456 | 72 | 343 | 1.7 | 2.6 | 0.00 | 0.00 | 0.00 | 66 | 1013.0 |
| 20260510145952 | 71 | 306 | 0.9 | 0.9 | 0.00 | 0.00 | 0.00 | 67 | 1012.7 |
| 20260510145448 | 71 | 216 | 0.9 | 1.7 | 0.00 | 0.00 | 0.00 | 67 | 1012.9 |
| 20260510144945 | 71 | 288 | 0.9 | 0.9 | 0.00 | 0.00 | 0.00 | 70 | 1012.6 |
| 20260510144442 | 71 | 145 | 3.5 | 4.3 | 0.00 | 0.00 | 0.00 | 67 | 1012.8 |
| 20260510143937 | 71 | 0 | 0.9 | 1.7 | 0.00 | 0.00 | 0.00 | 66 | 1012.7 |
| 20260510143433 | 70 | 318 | 0.9 | 0.9 | 0.00 | 0.00 | 0.00 | 68 | 1013.0 |
| 20260510142930 | 70 | 194 | 3.5 | 4.3 | 0.00 | 0.00 | 0.00 | 67 | 1013.0 |
| 20260510142421 | 70 | 115 | 2.6 | 2.6 | 0.00 | 0.00 | 0.00 | 65 | 1012.9 |
| 20260510141918 | 70 | 180 | 2.6 | 4.3 | 0.00 | 0.00 | 0.00 | 68 | 1013.0 |
| 20260510141415 | 69 | 6 | 1.7 | 1.7 | 0.00 | 0.00 | 0.00 | 71 | 1013.1 |
| 20260510140911 | 69 | 93 | 0.9 | 0.9 | 0.00 | 0.00 | 0.00 | 71 | 1012.9 |
| 20260510140408 | 70 | 317 | 0.0 | 0.0 | 0.00 | 0.00 | 0.00 | 70 | 1013.0 |
| 20260510135901 | 69 | 305 | 0.9 | 0.9 | 0.00 | 0.00 | 0.00 | 73 | 1013.1 |
| 20260510135357 | 69 | 337 | 0.9 | 0.9 | 0.00 | 0.00 | 0.00 | 72 | 1012.8 |
| 20260510134855 | 69 | 346 | 0.0 | 0.9 | 0.00 | 0.00 | 0.00 | 73 | 1012.8 |
| 20260510134351 | 68 | 327 | 0.0 | 0.9 | 0.00 | 0.00 | 0.00 | 76 | 1013.1 |
| 20260510133848 | 69 | 221 | 0.9 | 2.6 | 0.00 | 0.00 | 0.00 | 72 | 1013.1 |
| 20260510133344 | 68 | 336 | 0.0 | 0.0 | 0.00 | 0.00 | 0.00 | 74 | 1013.1 |
| 20260510132840 | 66 | 309 | 0.9 | 0.9 | 0.00 | 0.00 | 0.00 | 80 | 1013.2 |
| 20260510132338 | 65 | 308 | 0.0 | 0.0 | 0.00 | 0.00 | 0.00 | 81 | 1013.4 |
| 20260510131835 | 64 | 338 | 0.0 | 0.0 | 0.00 | 0.00 | 0.00 | 84 | 1013.1 |
| 20260510131332 | 63 | 338 | 0.0 | 0.0 | 0.00 | 0.00 | 0.00 | 84 | 1013.0 |
| 20260510130828 | 63 | 338 | 0.0 | 0.0 | 0.00 | 0.00 | 0.00 | 84 | 1013.1 |
| 20260510130326 | 63 | 335 | 0.0 | 0.0 | 0.00 | 0.00 | 0.00 | 82 | 1012.9 |
| 20260510125822 | 63 | 332 | 0.0 | 0.0 | 0.00 | 0.00 | 0.00 | 86 | 1012.8 |
| 20260510125318 | 60 | 336 | 0.0 | 0.0 | 0.00 | 0.00 | 0.00 | 94 | 1012.9 |
| 20260510124815 | 58 | 326 | 0.0 | 0.0 | 0.00 | 0.00 | 0.00 | 99 | 1013.0 |
| 20260510124312 | 58 | 323 | 0.0 | 0.0 | 0.00 | 0.00 | 0.00 | 99 | 1013.0 |
| 20260510123808 | 58 | 319 | 0.0 | 0.0 | 0.00 | 0.00 | 0.00 | 99 | 1012.9 |
| 20260510123304 | 58 | 319 | 0.0 | 0.0 | 0.00 | 0.00 | 0.00 | 99 | 1013.0 |
| 20260510122800 | 56 | 321 | 0.0 | 0.0 | 0.00 | 0.00 | 0.00 | 99 | 1012.8 |
| 20260510122256 | 55 | 321 | 0.0 | 0.0 | 0.00 | 0.00 | 0.00 | 99 | 1012.7 |
| 20260510121753 | 55 | 324 | 0.0 | 0.0 | 0.00 | 0.00 | 0.00 | 99 | 1012.6 |
| 20260510121250 | 53 | 324 | 0.0 | 0.0 | 0.00 | 0.00 | 0.00 | 99 | 1012.5 |
| 20260510120747 | 52 | 324 | 0.0 | 0.0 | 0.00 | 0.00 | 0.00 | 99 | 1012.5 |
| 20260510120244 | 51 | 324 | 0.0 | 0.0 | 0.00 | 0.00 | 0.00 | 99 | 1012.6 |
| 20260510115740 | 51 | 324 | 0.0 | 0.0 | 0.00 | 0.00 | 0.00 | 99 | 1012.4 |
| 20260510115238 | 51 | 324 | 0.0 | 0.0 | 0.00 | 0.00 | 0.00 | 99 | 1012.5 |
| 20260510114733 | 50 | 324 | 0.0 | 0.0 | 0.00 | 0.00 | 0.00 | 99 | 1012.5 |
| 20260510114230 | 50 | 324 | 0.0 | 0.0 | 0.00 | 0.00 | 0.00 | 99 | 1012.4 |
| 20260510113725 | 49 | 324 | 0.0 | 0.0 | 0.00 | 0.00 | 0.00 | 99 | 1012.2 |
| 20260510113223 | 49 | 324 | 0.0 | 0.0 | 0.00 | 0.00 | 0.00 | 99 | 1012.4 |
| 20260510112719 | 49 | 324 | 0.0 | 0.0 | 0.00 | 0.00 | 0.00 | 99 | 1012.2 |
| 20260510112216 | 49 | 324 | 0.0 | 0.0 | 0.00 | 0.00 | 0.00 | 99 | 1012.2 |
| 20260510111711 | 49 | 323 | 0.0 | 0.0 | 0.00 | 0.00 | 0.00 | 99 | 1012.1 |
| 20260510111208 | 49 | 325 | 0.0 | 0.0 | 0.00 | 0.00 | 0.00 | 99 | 1011.8 |
| 20260510110703 | 48 | 328 | 0.0 | 0.0 | 0.00 | 0.00 | 0.00 | 99 | 1011.8 |
| 20260510110201 | 48 | 325 | 0.0 | 0.0 | 0.00 | 0.00 | 0.00 | 99 | 1011.8 |
| 20260510105655 | 47 | 325 | 0.0 | 0.0 | 0.00 | 0.00 | 0.00 | 99 | 1011.8 |
| 20260510105150 | 47 | 325 | 0.0 | 0.0 | 0.00 | 0.00 | 0.00 | 99 | 1011.9 |
| 20260510104647 | 48 | 325 | 0.0 | 0.0 | 0.00 | 0.00 | 0.00 | 99 | 1011.8 |
| 20260510104144 | 48 | 325 | 0.0 | 0.0 | 0.00 | 0.00 | 0.00 | 99 | 1011.5 |
| 20260510103641 | 47 | 325 | 0.0 | 0.0 | 0.00 | 0.00 | 0.00 | 99 | 1011.5 |
| 20260510103137 | 47 | 325 | 0.0 | 0.0 | 0.00 | 0.00 | 0.00 | 99 | 1011.6 |
| 20260510102632 | 47 | 325 | 0.0 | 0.0 | 0.00 | 0.00 | 0.00 | 99 | 1011.4 |
| 20260510102128 | 47 | 325 | 0.0 | 0.0 | 0.00 | 0.00 | 0.00 | 99 | 1011.2 |
| 20260510101626 | 48 | 325 | 0.0 | 0.0 | 0.00 | 0.00 | 0.00 | 99 | 1011.3 |
| 20260510101124 | 48 | 325 | 0.0 | 0.0 | 0.00 | 0.00 | 0.00 | 99 | 1011.1 |
| 20260510100620 | 48 | 326 | 0.0 | 0.0 | 0.00 | 0.00 | 0.00 | 99 | 1011.2 |
| 20260510100118 | 48 | 331 | 0.0 | 0.0 | 0.00 | 0.00 | 0.00 | 99 | 1011.3 |
| 20260510095613 | 47 | 331 | 0.0 | 0.0 | 0.00 | 0.00 | 0.00 | 99 | 1011.1 |
| 20260510095113 | 48 | 331 | 0.0 | 0.0 | 0.00 | 0.00 | 0.00 | 99 | 1011.2 |
| 20260510094612 | 47 | 331 | 0.0 | 0.0 | 0.00 | 0.00 | 0.00 | 99 | 1010.9 |
| 20260510094108 | 47 | 331 | 0.0 | 0.0 | 0.00 | 0.00 | 0.00 | 99 | 1010.8 |
| 20260510093605 | 48 | 332 | 0.0 | 0.0 | 0.00 | 0.00 | 0.00 | 99 | 1010.8 |
| 20260510093101 | 48 | 331 | 0.0 | 0.0 | 0.00 | 0.00 | 0.00 | 99 | 1010.8 |
| 20260510092558 | 48 | 332 | 0.0 | 0.0 | 0.00 | 0.00 | 0.00 | 99 | 1010.7 |
| 20260510092058 | 48 | 331 | 0.0 | 0.0 | 0.00 | 0.00 | 0.00 | 99 | 1010.6 |
| 20260510091555 | 48 | 332 | 0.0 | 0.0 | 0.00 | 0.00 | 0.00 | 99 | 1010.6 |
| 20260510091051 | 48 | 331 | 0.0 | 0.0 | 0.00 | 0.00 | 0.00 | 99 | 1010.7 |
| 20260510090548 | 48 | 332 | 0.0 | 0.0 | 0.00 | 0.00 | 0.00 | 99 | 1010.6 |
| 20260510090044 | 48 | 331 | 0.0 | 0.0 | 0.00 | 0.00 | 0.00 | 99 | 1010.5 |
| 20260510085539 | 49 | 331 | 0.0 | 0.0 | 0.00 | 0.00 | 0.00 | 99 | 1010.4 |
| 20260510085035 | 49 | 331 | 0.0 | 0.0 | 0.00 | 0.00 | 0.00 | 99 | 1010.6 |
| 20260510084532 | 48 | 331 | 0.0 | 0.0 | 0.00 | 0.00 | 0.00 | 99 | 1010.4 |
| 20260510084029 | 49 | 331 | 0.0 | 0.0 | 0.00 | 0.00 | 0.00 | 99 | 1010.2 |
| 20260510083525 | 49 | 331 | 0.0 | 0.0 | 0.00 | 0.00 | 0.00 | 99 | 1010.3 |
| 20260510083021 | 49 | 332 | 0.0 | 0.0 | 0.00 | 0.00 | 0.00 | 99 | 1010.3 |
| 20260510082518 | 49 | 332 | 0.0 | 0.0 | 0.00 | 0.00 | 0.00 | 99 | 1010.1 |
| 20260510082013 | 50 | 332 | 0.0 | 0.0 | 0.00 | 0.00 | 0.00 | 99 | 1010.1 |
| 20260510081508 | 49 | 331 | 0.0 | 0.0 | 0.00 | 0.00 | 0.00 | 99 | 1010.0 |
| 20260510081005 | 49 | 331 | 0.0 | 0.0 | 0.00 | 0.00 | 0.00 | 99 | 1010.2 |
| 20260510080503 | 48 | 331 | 0.0 | 0.0 | 0.00 | 0.00 | 0.00 | 99 | 1010.3 |
| 20260510080000 | 48 | 331 | 0.0 | 0.0 | 0.00 | 0.00 | 0.00 | 99 | 1010.1 |
| 20260510075458 | 49 | 331 | 0.0 | 0.0 | 0.00 | 0.00 | 0.00 | 99 | 1009.9 |
| 20260510074954 | 49 | 331 | 0.0 | 0.0 | 0.00 | 0.00 | 0.00 | 99 | 1010.0 |
| 20260510074452 | 49 | 331 | 0.0 | 0.0 | 0.00 | 0.00 | 0.00 | 99 | 1009.9 |
| 20260510073948 | 49 | 331 | 0.0 | 0.0 | 0.00 | 0.00 | 0.00 | 99 | 1009.9 |
| 20260510073443 | 49 | 331 | 0.0 | 0.0 | 0.00 | 0.00 | 0.00 | 99 | 1009.9 |
| 20260510072940 | 50 | 331 | 0.0 | 0.0 | 0.00 | 0.00 | 0.00 | 99 | 1009.9 |
| 20260510072437 | 51 | 332 | 0.0 | 0.0 | 0.00 | 0.00 | 0.00 | 99 | 1009.6 |
| 20260510071933 | 51 | 331 | 0.0 | 0.0 | 0.00 | 0.00 | 0.00 | 99 | 1009.7 |
| 20260510071429 | 50 | 332 | 0.0 | 0.0 | 0.00 | 0.00 | 0.00 | 99 | 1009.7 |
| 20260510070927 | 50 | 330 | 0.0 | 0.0 | 0.00 | 0.00 | 0.00 | 99 | 1009.8 |
| 20260510070425 | 50 | 331 | 0.0 | 0.0 | 0.00 | 0.00 | 0.00 | 99 | 1010.0 |
| 20260510065920 | 50 | 331 | 0.0 | 0.0 | 0.00 | 0.00 | 0.00 | 99 | 1009.9 |
| 20260510065417 | 51 | 332 | 0.0 | 0.0 | 0.00 | 0.00 | 0.00 | 99 | 1010.0 |
| 20260510064913 | 51 | 333 | 0.0 | 0.0 | 0.00 | 0.00 | 0.00 | 99 | 1010.0 |
| 20260510064411 | 51 | 328 | 0.9 | 0.9 | 0.00 | 0.00 | 0.00 | 99 | 1010.0 |
| 20260510063907 | 51 | 325 | 0.0 | 0.0 | 0.00 | 0.00 | 0.00 | 99 | 1009.8 |
| 20260510063403 | 51 | 324 | 0.0 | 0.0 | 0.00 | 0.00 | 0.00 | 99 | 1009.9 |
| 20260510062901 | 51 | 329 | 0.9 | 0.9 | 0.00 | 0.00 | 0.00 | 99 | 1010.0 |
| 20260510062356 | 51 | 330 | 0.9 | 0.9 | 0.00 | 0.00 | 0.00 | 99 | 1010.1 |
| 20260510061851 | 51 | 331 | 0.9 | 0.9 | 0.00 | 0.00 | 0.00 | 99 | 1009.9 |
| 20260510061348 | 51 | 329 | 0.9 | 1.7 | 0.00 | 0.00 | 0.00 | 99 | 1009.9 |
| 20260510060844 | 52 | 338 | 0.9 | 0.9 | 0.00 | 0.00 | 0.00 | 99 | 1010.2 |
| 20260510060341 | 51 | 330 | 0.0 | 0.9 | 0.00 | 0.00 | 0.00 | 99 | 1009.8 |
| 20260510055838 | 52 | 332 | 0.9 | 0.9 | 0.00 | 0.00 | 0.00 | 99 | 1010.1 |
| 20260510055336 | 52 | 331 | 0.0 | 0.0 | 0.00 | 0.00 | 0.00 | 99 | 1009.9 |
| 20260510054831 | 52 | 332 | 0.9 | 0.9 | 0.00 | 0.00 | 0.00 | 99 | 1009.9 |
| 20260510054327 | 52 | 332 | 0.0 | 0.0 | 0.00 | 0.00 | 0.00 | 99 | 1009.9 |
| 20260510053822 | 52 | 332 | 0.0 | 0.0 | 0.00 | 0.00 | 0.00 | 99 | 1010.2 |
| 20260510053317 | 52 | 334 | 0.9 | 0.9 | 0.00 | 0.00 | 0.00 | 99 | 1010.2 |
| 20260510052814 | 52 | 331 | 0.0 | 0.0 | 0.00 | 0.00 | 0.00 | 99 | 1010.0 |
| 20260510052310 | 52 | 331 | 0.9 | 0.9 | 0.00 | 0.00 | 0.00 | 99 | 1010.0 |
| 20260510051806 | 52 | 333 | 0.9 | 0.9 | 0.00 | 0.00 | 0.00 | 99 | 1010.0 |
| 20260510051303 | 53 | 335 | 1.7 | 1.7 | 0.00 | 0.00 | 0.00 | 99 | 1010.1 |
| 20260510050800 | 53 | 338 | 0.9 | 1.7 | 0.00 | 0.00 | 0.00 | 99 | 1010.0 |
| 20260510050257 | 53 | 331 | 0.9 | 0.9 | 0.00 | 0.00 | 0.00 | 99 | 1010.0 |
| 20260510045754 | 53 | 335 | 0.9 | 0.9 | 0.00 | 0.00 | 0.00 | 99 | 1010.2 |
| 20260510045250 | 53 | 333 | 0.9 | 1.7 | 0.00 | 0.00 | 0.00 | 99 | 1010.1 |
| 20260510044747 | 53 | 329 | 0.0 | 0.0 | 0.00 | 0.00 | 0.00 | 99 | 1010.1 |
| 20260510044244 | 53 | 332 | 0.9 | 0.9 | 0.00 | 0.00 | 0.00 | 99 | 1010.2 |
| 20260510043740 | 53 | 326 | 0.9 | 0.9 | 0.00 | 0.00 | 0.00 | 99 | 1010.3 |
| 20260510043237 | 53 | 323 | 0.0 | 0.0 | 0.00 | 0.00 | 0.00 | 99 | 1010.3 |
| 20260510042734 | 53 | 319 | 0.0 | 0.0 | 0.00 | 0.00 | 0.00 | 99 | 1010.3 |
| 20260510042229 | 54 | 329 | 0.9 | 0.9 | 0.00 | 0.00 | 0.00 | 99 | 1010.2 |
| 20260510041727 | 54 | 335 | 0.9 | 1.7 | 0.00 | 0.00 | 0.00 | 99 | 1010.2 |
| 20260510041224 | 54 | 330 | 0.9 | 0.9 | 0.00 | 0.00 | 0.00 | 99 | 1010.4 |
| 20260510040721 | 54 | 326 | 0.0 | 0.0 | 0.00 | 0.00 | 0.00 | 99 | 1010.2 |
| 20260510040218 | 54 | 327 | 0.0 | 0.0 | 0.00 | 0.00 | 0.00 | 99 | 1010.3 |
| 20260510035713 | 54 | 329 | 0.9 | 0.9 | 0.00 | 0.00 | 0.00 | 99 | 1010.2 |
| 20260510035209 | 54 | 333 | 0.9 | 0.9 | 0.00 | 0.00 | 0.00 | 99 | 1010.3 |
| 20260510034705 | 54 | 331 | 0.9 | 1.7 | 0.00 | 0.00 | 0.00 | 99 | 1010.1 |
| 20260510034203 | 54 | 329 | 0.9 | 0.9 | 0.00 | 0.00 | 0.00 | 99 | 1010.3 |
| 20260510033659 | 55 | 331 | 0.9 | 0.9 | 0.00 | 0.00 | 0.00 | 99 | 1010.1 |
| 20260510033157 | 55 | 329 | 0.9 | 0.9 | 0.00 | 0.00 | 0.00 | 99 | 1010.3 |
| 20260510032653 | 55 | 334 | 0.9 | 0.9 | 0.00 | 0.00 | 0.00 | 99 | 1010.0 |
| 20260510032149 | 55 | 334 | 0.9 | 1.7 | 0.00 | 0.00 | 0.00 | 99 | 1010.1 |
| 20260510031643 | 55 | 328 | 0.9 | 0.9 | 0.00 | 0.00 | 0.00 | 99 | 1010.1 |
| 20260510031140 | 55 | 327 | 0.0 | 0.0 | 0.00 | 0.00 | 0.00 | 99 | 1010.2 |
| 20260510030635 | 55 | 327 | 0.0 | 0.9 | 0.00 | 0.00 | 0.00 | 99 | 1010.4 |
| 20260510030133 | 55 | 327 | 0.9 | 0.9 | 0.00 | 0.00 | 0.00 | 99 | 1010.1 |
| 20260510025630 | 55 | 327 | 0.0 | 0.0 | 0.00 | 0.00 | 0.00 | 98 | 1010.3 |
| 20260510025127 | 55 | 325 | 0.0 | 0.0 | 0.00 | 0.00 | 0.00 | 98 | 1010.1 |
| 20260510024623 | 56 | 326 | 0.0 | 0.0 | 0.00 | 0.00 | 0.00 | 98 | 1010.0 |
| 20260510024120 | 56 | 326 | 0.0 | 0.0 | 0.00 | 0.00 | 0.00 | 97 | 1009.8 |
| 20260510023616 | 56 | 327 | 0.0 | 0.9 | 0.00 | 0.00 | 0.00 | 97 | 1009.7 |
| 20260510023114 | 56 | 328 | 0.0 | 0.0 | 0.00 | 0.00 | 0.00 | 97 | 1009.6 |
| 20260510022614 | 56 | 329 | 0.9 | 0.9 | 0.00 | 0.00 | 0.00 | 96 | 1009.6 |
| 20260510022108 | 57 | 334 | 0.9 | 0.9 | 0.00 | 0.00 | 0.00 | 96 | 1009.5 |
| 20260510021604 | 57 | 334 | 0.9 | 1.7 | 0.00 | 0.00 | 0.00 | 95 | 1009.7 |
| 20260510021102 | 57 | 336 | 1.7 | 1.7 | 0.00 | 0.00 | 0.00 | 95 | 1009.5 |
| 20260510020556 | 57 | 332 | 0.9 | 0.9 | 0.00 | 0.00 | 0.00 | 94 | 1009.4 |
| 20260510020052 | 57 | 334 | 0.9 | 0.9 | 0.00 | 0.00 | 0.00 | 94 | 1009.3 |
| 20260510015548 | 58 | 331 | 0.9 | 0.9 | 0.00 | 0.00 | 0.00 | 93 | 1009.2 |
| 20260510015044 | 58 | 332 | 0.9 | 0.9 | 0.00 | 0.00 | 0.00 | 92 | 1009.2 |
| 20260510014540 | 58 | 337 | 0.9 | 0.9 | 0.00 | 0.00 | 0.00 | 92 | 1008.9 |
| 20260510014038 | 58 | 337 | 1.7 | 1.7 | 0.00 | 0.00 | 0.00 | 92 | 1008.7 |
| 20260510013532 | 59 | 337 | 0.9 | 0.9 | 0.00 | 0.00 | 0.00 | 91 | 1008.7 |
| 20260510013028 | 59 | 335 | 0.9 | 0.9 | 0.00 | 0.00 | 0.00 | 91 | 1008.7 |
| 20260510012522 | 59 | 333 | 0.0 | 0.0 | 0.00 | 0.00 | 0.00 | 91 | 1008.5 |
| 20260510012019 | 59 | 332 | 0.9 | 0.9 | 0.00 | 0.00 | 0.00 | 90 | 1008.4 |
| 20260510011518 | 60 | 330 | 0.9 | 0.9 | 0.00 | 0.00 | 0.00 | 89 | 1008.4 |
| 20260510011014 | 60 | 329 | 0.0 | 0.9 | 0.00 | 0.00 | 0.00 | 88 | 1008.5 |
| 20260510010512 | 60 | 328 | 0.9 | 0.9 | 0.00 | 0.00 | 0.00 | 87 | 1008.3 |
| 20260510010008 | 60 | 329 | 0.9 | 0.9 | 0.00 | 0.00 | 0.00 | 87 | 1008.4 |
| 20260510005504 | 61 | 328 | 0.0 | 0.9 | 0.00 | 0.00 | 0.00 | 87 | 1008.3 |
| 20260510005002 | 61 | 328 | 0.0 | 0.0 | 0.00 | 0.00 | 0.00 | 87 | 1008.0 |
| 20260510004459 | 61 | 327 | 0.0 | 0.0 | 0.00 | 0.00 | 0.00 | 86 | 1008.2 |
| 20260510003957 | 61 | 327 | 0.0 | 0.0 | 0.00 | 0.00 | 0.00 | 84 | 1008.2 |
| 20260510003453 | 62 | 327 | 0.0 | 0.0 | 0.00 | 0.00 | 0.00 | 83 | 1008.0 |
| 20260510002949 | 63 | 327 | 0.0 | 0.0 | 0.00 | 0.00 | 0.00 | 82 | 1007.9 |
| 20260510002445 | 63 | 327 | 0.0 | 0.0 | 0.00 | 0.00 | 0.00 | 80 | 1007.5 |
| 20260510001941 | 64 | 328 | 0.0 | 0.0 | 0.00 | 0.00 | 0.00 | 78 | 1007.9 |
| 20260510001439 | 64 | 328 | 0.0 | 0.0 | 0.00 | 0.00 | 0.00 | 78 | 1007.7 |
| 20260510000937 | 65 | 327 | 0.0 | 0.0 | 0.00 | 0.00 | 0.00 | 78 | 1007.7 |
| 20260510000433 | 65 | 327 | 0.0 | 0.0 | 0.00 | 0.00 | 0.00 | 75 | 1007.6 |
| 20260509235929 | 66 | 327 | 0.0 | 0.0 | 0.00 | 0.00 | 0.00 | 76 | 1007.7 |
| 20260509235426 | 66 | 327 | 0.0 | 0.0 | 0.00 | 0.00 | 0.00 | 77 | 1007.5 |
| 20260509234922 | 66 | 324 | 0.0 | 0.0 | 0.00 | 0.00 | 0.00 | 75 | 1007.4 |
| 20260509234419 | 67 | 325 | 0.0 | 0.0 | 0.00 | 0.00 | 0.00 | 74 | 1007.6 |
| 20260509233917 | 68 | 327 | 0.0 | 0.0 | 0.00 | 0.00 | 0.00 | 73 | 1007.5 |
| 20260509233414 | 68 | 323 | 0.0 | 0.0 | 0.00 | 0.00 | 0.00 | 72 | 1007.3 |
| 20260509232910 | 69 | 329 | 0.0 | 0.0 | 0.00 | 0.00 | 0.00 | 71 | 1007.5 |
| 20260509232409 | 69 | 331 | 0.0 | 0.0 | 0.00 | 0.00 | 0.00 | 70 | 1007.4 |
| 20260509231904 | 69 | 333 | 0.0 | 0.0 | 0.00 | 0.00 | 0.00 | 69 | 1007.8 |
| 20260509231401 | 69 | 342 | 0.9 | 1.7 | 0.00 | 0.00 | 0.00 | 69 | 1007.5 |